Antonia, Missouri
Current Conditions -  °F | °C
As of 11:53 AM on Monday 24 Nov 2014 (Local Time) from KCPS Reporting Station
Overcast Overcast  
Wind Chill: 31°   Ceiling: 3800
Heat Index: 41°   Visibility: 10mi
Dew Point: 28°   Wind: 22mph
Humidity: 60%   Direction: 250°WSW
Pressure: 29.7"   Gusts: 32mph
Location:  38.3874°N, 90.4319°W
Report Text: KCPS 241753Z 25019G28KT 10SM OVC038 05/M02 A2970 RMK AO2 PK WND 25030/1658 SLP056 60000 T00501022 10056 20033 51023
Loading
Personal Weather Stations






























Interactive Weather Map New forecast layout! Learn more

10-Day Weather Forecast

Advertisements
Track Severe Weather on mobile